AirNav   Everest Fuels
 
 391 users online  

3WN4 Mark's Park & Airfield
New London, Wisconsin, USA

GOING TO NEW LONDON?


FAA INFORMATION EFFECTIVE 21 MAY 2020

Location

FAA Identifier: 3WN4
Lat/Long: 44-18-25.0000N 088-46-16.0000W
44-18.416667N 088-46.266667W
44.3069444,-88.7711111
(estimated)
Elevation: 855 ft. / 261 m (estimated)
Variation: 02W (2000)
From city: 6 miles S of NEW LONDON, WI
Time zone: UTC -5 (UTC -6 during Standard Time)
Zip code: 54961

Ultralight Flight Park Operations

Ultralight Flight Park use: Private use. Permission required prior to landing
Activation date: 11/2002
Control tower: no
ARTCC: MINNEAPOLIS CENTER
FSS: GREEN BAY FLIGHT SERVICE STATION
Attendance: IREG
Wind indicator: yes
Segmented circle: no

Ultralight Flight Park Communications

WX AWOS-3 at PCZ (11 nm W): 118.625 (920-867-2407)
WX AWOS-3 at ATW (11 nm E): PHONE 920-832-2597
WX AWOS-3 at CLI (18 nm N): 120.675 (715-823-7691)

Nearby radio navigation aids

VOR radial/distance  VOR name  Freq  Var
OSHr332/21.1OSHKOSH VORTAC116.7502E
GRBr238/28.8GREEN BAY VORTAC115.5001E

Ultralight Flight Park Services

Runway Information

Runway 9/27

Dimensions: 1000 x 250 ft. / 305 x 76 m
Surface: turf
RUNWAY 9  RUNWAY 27
Traffic pattern: leftleft

Ultralight Flight Park Ownership and Management from official FAA records

Ownership: Privately-owned
Owner: MARK & ANGELA ZABEL
E9031 ZABEL DR
NEW LONDON, WI 54961
Phone 920-982-0981
Manager: MARK ZABEL
E9031 ZABEL DR
NEW LONDON, WI 54961
Phone 920-982-0981

Ultralight Flight Park Operational Statistics

Aircraft based on the field: 1
Ultralights: 1
    

Additional Remarks

POWER LINES 1/2 NM NORTH AND WEST OF ULTRALIGHT FLIGHT PARK.
FOR CD CTC MINNEAPOLIS ARTCC AT 651-463-5588.

Instrument Procedures

There are no published instrument procedures at 3WN4.

Some nearby airports with instrument procedures:

KPCZ - Waupaca Municipal Airport (11 nm W)
KATW - Appleton International Airport (11 nm E)
KCLI - Clintonville Municipal Airport (18 nm N)
KOSH - Wittman Regional Airport (21 nm SE)
Y50 - Wautoma Municipal Airport (28 nm SW)
 
Loc | Ops | Rwys | IFR | FBO | Links
Com | Nav | Svcs | Stats | Notes
Area around 3WN4 (Mark's Park & Airfield)
 
Road maps at: MapQuest Bing Google
 
Aerial photo
WARNING: Photo may not be current or correct
Aerial photo of 3WN4 (Mark's Park & Airfield)
Do you have a better or more recent aerial photo of Mark's Park & Airfield that you would like to share? If so, please send us your photo.

 
Sectional chart

 
Airport distance calculator
Flying to Mark's Park & Airfield? Find the distance to fly.

From to 3WN4

Sunrise and sunset
Times for 31-May-2020
 Local
(UTC-5)
 Zulu
(UTC)
Morning civil twilight04:3909:39
Sunrise05:1510:15
Sunset20:3101:31
Evening civil twilight21:0602:06

Current date and time
Zulu (UTC)  31-May-2020 06:31:31
Local (UTC-5)  31-May-2020 01:31:31
 
METAR
KPCZ 
11nm W 
310615Z AUTO 11004KT 10SM CLR 08/02 A3034 RMK AO2 T00750020
KATW 
11nm E 
310615Z AUTO 11003KT 10SM CLR 06/M01 A3031 RMK AO2
KCLI 
18nm N 
310615Z AUTO 20003KT 10SM CLR 07/03 A3033 RMK AO2 T00650026
TAF
KATW 
11nm E 
310520Z 3106/0106 10007KT P6SM SKC FM310900 23004KT P6SM SKC FM311500 23008KT P6SM SKC
NOTAMs
Click for the latest NOTAMs
NOTAMs are issued by the DoD/FAA and will open in a separate window not controlled by AirNav.

 

 
 

Would you like to see your business listed on this page?

 If your business provides an interesting product or service to pilots, flight crews, aircraft, or users of the Mark's Park & Airfield, you should consider listing it here.  To start the listing process, click on the button below
 
Add a business
 

Other Pages about Mark's Park & Airfield

Update a link
 
Copyright © AirNav, LLC. All rights reserved. Privacy Policy  Contact